createdAt,value
2022-11-05T00:00:02.947Z,7.08
2022-11-05T00:02:47.721Z,7.04
2022-11-05T00:05:33.674Z,7.00
2022-11-05T00:08:23.014Z,6.94
2022-11-05T00:10:49.869Z,6.90
2022-11-05T00:13:35.309Z,6.86
2022-11-05T00:16:20.185Z,6.80
2022-11-05T00:19:06.227Z,6.74
2022-11-05T00:21:51.955Z,6.69
2022-11-05T00:24:36.725Z,6.60
2022-11-05T00:27:03.325Z,6.52
2022-11-05T00:29:29.763Z,6.46
2022-11-05T00:31:56.269Z,6.39
2022-11-05T00:34:22.644Z,6.28
2022-11-05T00:36:48.990Z,6.26
2022-11-05T00:39:15.339Z,6.21
2022-11-05T00:41:41.764Z,6.18
2022-11-05T00:44:43.318Z,6.13
2022-11-05T00:47:28.259Z,6.06
2022-11-05T00:49:54.667Z,5.97
2022-11-05T00:52:39.452Z,5.93
2022-11-05T00:55:06.004Z,5.91
2022-11-05T00:57:32.316Z,5.93
2022-11-05T00:59:58.626Z,5.94
2022-11-05T01:02:25.025Z,5.96
2022-11-05T01:04:51.416Z,5.92
2022-11-05T01:07:17.759Z,5.90
2022-11-05T01:09:44.090Z,5.88
2022-11-05T01:12:10.398Z,5.88
2022-11-05T01:14:36.739Z,5.87
2022-11-05T01:17:03.145Z,5.86
2022-11-05T01:19:29.615Z,5.85
2022-11-05T01:21:55.946Z,5.81
2022-11-05T01:24:22.274Z,5.80
2022-11-05T01:26:48.618Z,5.77
2022-11-05T01:29:15.586Z,5.74
2022-11-05T01:31:42.110Z,5.70
2022-11-05T01:34:08.471Z,5.67
2022-11-05T01:36:34.854Z,5.65
2022-11-05T01:39:01.879Z,5.63
2022-11-05T01:41:28.239Z,5.62
2022-11-05T01:44:03.171Z,5.60
2022-11-05T01:46:40.027Z,5.59
2022-11-05T01:49:18.952Z,5.57
2022-11-05T01:51:46.346Z,5.58
2022-11-05T01:54:16.617Z,5.56
2022-11-05T01:56:49.592Z,5.53
2022-11-05T01:59:27.018Z,5.53
2022-11-05T02:01:54.792Z,5.50
2022-11-05T02:04:31.264Z,5.50
2022-11-05T02:06:58.044Z,5.48
2022-11-05T02:09:36.643Z,5.50
2022-11-05T02:12:03.493Z,5.47
2022-11-05T02:14:29.873Z,5.46
2022-11-05T02:17:03.419Z,5.45
2022-11-05T02:19:59.946Z,5.46
2022-11-05T02:22:48.459Z,5.42
2022-11-05T02:25:17.728Z,5.41
2022-11-05T02:27:58.885Z,5.44
2022-11-05T02:30:34.341Z,5.42
2022-11-05T02:33:11.053Z,5.42
2022-11-05T02:36:13.098Z,5.43
2022-11-05T02:38:42.529Z,5.39
2022-11-05T02:41:08.969Z,5.34
2022-11-05T02:44:07.542Z,5.36
2022-11-05T02:47:17.997Z,5.34
2022-11-05T02:50:12.816Z,5.30
2022-11-05T02:53:16.763Z,5.28
2022-11-05T02:55:50.507Z,5.26
2022-11-05T02:58:16.950Z,5.24
2022-11-05T03:00:53.557Z,5.22
2022-11-05T03:03:30.825Z,5.20
2022-11-05T03:06:15.903Z,5.18
2022-11-05T03:08:45.159Z,5.16
2022-11-05T03:11:15.247Z,5.15
2022-11-05T03:13:52.087Z,5.14
2022-11-05T03:16:25.772Z,5.14
2022-11-05T03:19:19.793Z,5.11
2022-11-05T03:22:20.243Z,5.07
2022-11-05T03:24:50.873Z,5.05
2022-11-05T03:27:22.353Z,5.03
2022-11-05T03:30:00.276Z,4.99
2022-11-05T03:32:29.683Z,4.97
2022-11-05T03:35:04.120Z,4.94
2022-11-05T03:37:34.385Z,4.94
2022-11-05T03:40:06.051Z,4.94
2022-11-05T03:42:36.026Z,4.91
2022-11-05T03:45:09.151Z,4.91
2022-11-05T03:47:40.661Z,4.93
2022-11-05T03:50:14.472Z,4.93
2022-11-05T03:52:49.254Z,4.91
2022-11-05T03:55:16.310Z,4.88
2022-11-05T03:57:47.198Z,4.90
2022-11-05T04:00:14.144Z,4.88
2022-11-05T04:02:41.656Z,4.86
2022-11-05T04:05:08.207Z,4.86
2022-11-05T04:07:52.867Z,4.83
2022-11-05T04:10:37.646Z,4.82
2022-11-05T04:13:22.462Z,4.82
2022-11-05T04:16:07.390Z,4.80
2022-11-05T04:18:34.106Z,4.80
2022-11-05T04:21:23.648Z,4.80
2022-11-05T04:24:08.454Z,4.81
2022-11-05T04:26:47.419Z,4.85
2022-11-05T04:29:32.310Z,4.87
2022-11-05T04:31:58.718Z,4.95
2022-11-05T04:34:25.058Z,5.01
2022-11-05T04:36:53.157Z,5.08
2022-11-05T04:39:20.765Z,5.12
2022-11-05T04:41:50.381Z,5.15
2022-11-05T04:44:16.903Z,5.14
2022-11-05T04:46:43.610Z,5.16
2022-11-05T04:49:09.991Z,5.16
2022-11-05T04:51:36.386Z,5.15
2022-11-05T04:54:02.865Z,5.15
2022-11-05T04:56:29.374Z,5.17
2022-11-05T04:58:55.767Z,5.22
2022-11-05T05:01:23.503Z,5.29
2022-11-05T05:03:51.587Z,5.37
2022-11-05T05:06:18.713Z,5.43
2022-11-05T05:08:47.467Z,5.46
2022-11-05T05:11:16.103Z,5.50
2022-11-05T05:13:42.582Z,5.53
2022-11-05T05:16:16.265Z,5.53
2022-11-05T05:18:46.193Z,5.57
2022-11-05T05:21:31.515Z,5.60
2022-11-05T05:23:57.818Z,5.65
2022-11-05T05:26:24.262Z,5.68
2022-11-05T05:28:52.493Z,5.71
2022-11-05T05:31:18.905Z,5.72
2022-11-05T05:33:45.375Z,5.71
2022-11-05T05:36:11.788Z,5.70
2022-11-05T05:38:38.231Z,5.62
2022-11-05T05:41:04.782Z,5.60
2022-11-05T05:43:32.291Z,5.57
2022-11-05T05:46:06.627Z,5.56
2022-11-05T05:48:33.562Z,5.52
2022-11-05T05:51:02.148Z,5.50
2022-11-05T05:53:29.258Z,5.48
2022-11-05T05:55:56.877Z,5.45
2022-11-05T05:58:26.638Z,5.42
2022-11-05T06:00:53.962Z,5.40
2022-11-05T06:03:20.376Z,5.36
2022-11-05T06:05:47.667Z,5.34
2022-11-05T06:08:13.998Z,5.33
2022-11-05T06:10:40.399Z,5.31
2022-11-05T06:13:06.959Z,5.29
2022-11-05T06:15:36.034Z,5.28
2022-11-05T06:18:02.628Z,5.27
2022-11-05T06:20:29.038Z,5.24
2022-11-05T06:22:56.679Z,5.23
2022-11-05T06:25:23.964Z,5.21
2022-11-05T06:27:50.286Z,5.20
2022-11-05T06:30:17.667Z,5.20
2022-11-05T06:32:44.633Z,5.20
2022-11-05T06:35:11.048Z,5.24
2022-11-05T06:37:37.420Z,5.25
2022-11-05T06:40:04.091Z,5.25
2022-11-05T06:42:30.500Z,5.29
2022-11-05T06:44:56.909Z,5.34
2022-11-05T06:47:23.270Z,5.40
2022-11-05T06:49:51.471Z,5.45
2022-11-05T06:52:18.312Z,5.51
2022-11-05T06:54:44.899Z,5.51
2022-11-05T06:57:12.449Z,5.55
2022-11-05T06:59:39.474Z,5.55
2022-11-05T07:02:07.049Z,5.56
2022-11-05T07:04:33.657Z,5.57
2022-11-05T07:07:00.945Z,5.61
2022-11-05T07:09:28.435Z,5.61
2022-11-05T07:11:55.697Z,5.65
2022-11-05T07:14:22.252Z,5.66
2022-11-05T07:16:48.726Z,5.67
2022-11-05T07:19:15.099Z,5.69
2022-11-05T07:21:41.553Z,5.70
2022-11-05T07:24:08.244Z,5.72
2022-11-05T07:26:34.868Z,5.75
2022-11-05T07:29:01.371Z,5.77
2022-11-05T07:31:28.047Z,5.78
2022-11-05T07:33:54.432Z,5.80
2022-11-05T07:36:20.819Z,5.82
2022-11-05T07:38:47.193Z,5.85
2022-11-05T07:41:13.538Z,5.90
2022-11-05T07:43:39.963Z,5.93
2022-11-05T07:46:11.157Z,5.97
2022-11-05T07:48:39.966Z,6.01
2022-11-05T07:51:06.302Z,6.07
2022-11-05T07:53:32.620Z,6.13
2022-11-05T07:55:59.039Z,6.19
2022-11-05T07:58:25.667Z,6.25
2022-11-05T08:00:52.197Z,6.32
2022-11-05T08:03:19.561Z,6.42
2022-11-05T08:05:47.489Z,6.52
2022-11-05T08:08:16.581Z,6.62
2022-11-05T08:10:43.308Z,6.72
2022-11-05T08:13:11.125Z,6.83
2022-11-05T08:15:37.855Z,6.93
2022-11-05T08:18:07.169Z,7.07
2022-11-05T08:20:34.592Z,7.18
2022-11-05T08:23:01.251Z,7.35
2022-11-05T08:25:27.809Z,7.47
2022-11-05T08:27:59.534Z,7.61
2022-11-05T08:30:26.099Z,7.73
2022-11-05T08:32:57.132Z,7.91
2022-11-05T08:35:23.614Z,8.08
2022-11-05T08:37:49.982Z,8.22
2022-11-05T08:40:16.415Z,8.37
2022-11-05T08:42:42.948Z,8.48
2022-11-05T08:45:09.883Z,8.68
2022-11-05T08:47:36.246Z,8.79
2022-11-05T08:50:02.647Z,8.88
2022-11-05T08:52:29.042Z,9.02
2022-11-05T08:54:55.396Z,9.19
2022-11-05T08:57:21.806Z,9.25
2022-11-05T08:59:48.111Z,9.39
2022-11-05T09:02:14.633Z,9.52
2022-11-05T09:04:41.044Z,9.72
2022-11-05T09:07:07.876Z,9.88
2022-11-05T09:09:34.208Z,9.82
2022-11-05T09:12:15.891Z,9.82
2022-11-05T09:14:42.503Z,9.89
2022-11-05T09:17:20.133Z,10.04
2022-11-05T09:19:46.685Z,10.19
2022-11-05T09:22:13.838Z,10.27
2022-11-05T09:24:41.064Z,10.25
2022-11-05T09:27:10.308Z,10.41
2022-11-05T09:29:36.934Z,10.55
2022-11-05T09:32:03.275Z,10.71
2022-11-05T09:34:29.646Z,10.97
2022-11-05T09:36:57.181Z,10.97
2022-11-05T09:39:23.956Z,11.07
2022-11-05T09:41:53.518Z,11.22
2022-11-05T09:44:23.900Z,11.21
2022-11-05T09:46:58.014Z,11.21
2022-11-05T09:49:30.479Z,11.09
2022-11-05T09:51:58.837Z,11.18
2022-11-05T09:54:29.239Z,11.39
2022-11-05T09:56:55.808Z,11.04
2022-11-05T09:59:30.146Z,10.84
2022-11-05T10:02:10.071Z,10.81
2022-11-05T10:04:37.947Z,10.89
2022-11-05T10:07:07.144Z,10.96
2022-11-05T10:09:45.152Z,11.20
2022-11-05T10:12:15.450Z,11.52
2022-11-05T10:14:47.943Z,11.76
2022-11-05T10:17:24.353Z,11.54
2022-11-05T10:20:13.859Z,11.33
2022-11-05T10:22:43.873Z,11.35
2022-11-05T10:25:19.464Z,11.64
2022-11-05T10:27:54.602Z,11.80
2022-11-05T10:30:21.958Z,11.77
2022-11-05T10:32:51.753Z,11.68
2022-11-05T10:35:22.487Z,11.48
2022-11-05T10:37:50.386Z,11.54
2022-11-05T10:40:28.004Z,11.56
2022-11-05T10:43:02.295Z,11.73
2022-11-05T10:45:31.478Z,11.73
2022-11-05T10:48:23.800Z,11.70
2022-11-05T10:50:50.198Z,11.60
2022-11-05T10:53:23.647Z,11.62
2022-11-05T10:55:51.605Z,11.53
2022-11-05T10:58:17.897Z,11.53
2022-11-05T11:00:51.007Z,11.50
2022-11-05T11:03:44.399Z,11.53
2022-11-05T11:06:32.540Z,11.47
2022-11-05T11:09:02.361Z,11.39
2022-11-05T11:11:35.630Z,11.24
2022-11-05T11:14:13.957Z,11.24
2022-11-05T11:16:42.552Z,11.31
2022-11-05T11:19:20.992Z,11.40
2022-11-05T11:22:11.517Z,11.35
2022-11-05T11:24:40.631Z,11.42
2022-11-05T11:27:13.571Z,11.37
2022-11-05T11:29:48.943Z,11.35
2022-11-05T11:32:19.003Z,11.38
2022-11-05T11:34:48.623Z,11.34
2022-11-05T11:37:24.670Z,11.34
2022-11-05T11:40:02.372Z,11.27
2022-11-05T11:42:33.297Z,11.19
2022-11-05T11:45:04.534Z,11.28
2022-11-05T11:47:33.184Z,11.40
2022-11-05T11:50:02.239Z,11.37
2022-11-05T11:52:30.479Z,11.35
2022-11-05T11:55:12.066Z,11.26
2022-11-05T11:57:46.226Z,11.24
2022-11-05T12:00:13.352Z,11.31
2022-11-05T12:03:02.125Z,11.35
2022-11-05T12:05:46.713Z,11.33
2022-11-05T12:08:45.253Z,11.27
2022-11-05T12:11:18.418Z,11.32
2022-11-05T12:14:03.941Z,11.38
2022-11-05T12:16:59.503Z,11.40
2022-11-05T12:19:51.138Z,11.53
2022-11-05T12:22:24.486Z,11.64
2022-11-05T12:24:59.821Z,11.81
2022-11-05T12:27:44.966Z,11.89
2022-11-05T12:30:21.846Z,12.07
2022-11-05T12:33:07.109Z,12.87
2022-11-05T12:36:05.887Z,13.45
2022-11-05T12:38:38.096Z,13.19
2022-11-05T12:41:07.384Z,13.14
2022-11-05T12:43:36.829Z,12.96
2022-11-05T12:46:18.442Z,12.55
2022-11-05T12:49:02.781Z,12.29
2022-11-05T12:52:04.644Z,12.21
2022-11-05T12:54:52.806Z,12.21
2022-11-05T12:57:21.233Z,12.12
2022-11-05T12:59:53.539Z,12.07
2022-11-05T13:02:39.148Z,12.10
2022-11-05T13:05:14.083Z,12.09
2022-11-05T13:07:52.997Z,12.05
2022-11-05T13:10:44.419Z,11.94
2022-11-05T13:13:22.242Z,11.88
2022-11-05T13:16:19.039Z,11.90
2022-11-05T13:19:12.905Z,11.92
2022-11-05T13:21:41.760Z,11.97
2022-11-05T13:24:18.794Z,12.09
2022-11-05T13:27:02.827Z,12.16
2022-11-05T13:29:35.022Z,12.09
2022-11-05T13:32:12.757Z,12.05
2022-11-05T13:34:39.675Z,11.98
2022-11-05T13:37:26.364Z,11.96
2022-11-05T13:39:58.215Z,12.00
2022-11-05T13:42:27.346Z,12.16
2022-11-05T13:45:04.826Z,12.22
2022-11-05T13:48:06.596Z,12.29
2022-11-05T13:50:51.563Z,12.29
2022-11-05T13:53:53.641Z,12.26
2022-11-05T13:56:23.093Z,12.15
2022-11-05T13:59:09.951Z,11.95
2022-11-05T14:01:58.412Z,11.83
2022-11-05T14:04:31.222Z,11.71
2022-11-05T14:07:32.352Z,11.65
2022-11-05T14:10:15.691Z,11.64
2022-11-05T14:12:48.247Z,11.63
2022-11-05T14:15:22.611Z,11.58
2022-11-05T14:18:21.327Z,11.66
2022-11-05T14:21:02.140Z,11.69
2022-11-05T14:23:39.215Z,11.59
2022-11-05T14:26:21.476Z,11.55
2022-11-05T14:29:10.956Z,11.56
2022-11-05T14:34:45.427Z,11.40
2022-11-05T14:37:11.802Z,11.37
2022-11-05T14:39:39.268Z,11.32
2022-11-05T14:42:14.569Z,11.28
2022-11-05T14:45:19.153Z,11.21
2022-11-05T14:47:56.005Z,11.21
2022-11-05T14:50:39.659Z,11.15
2022-11-05T14:53:12.803Z,11.01
2022-11-05T14:55:42.909Z,11.01
2022-11-05T14:58:31.092Z,11.02
2022-11-05T15:01:00.807Z,11.01
2022-11-05T15:03:45.860Z,10.99
2022-11-05T15:06:31.413Z,10.98
2022-11-05T15:09:00.726Z,11.00
2022-11-05T15:11:37.092Z,10.99
2022-11-05T15:14:11.732Z,10.96
2022-11-05T15:16:44.738Z,10.98
2022-11-05T15:19:25.996Z,10.92
2022-11-05T15:21:56.712Z,10.90
2022-11-05T15:24:24.030Z,10.88
2022-11-05T15:27:02.896Z,10.83
2022-11-05T15:29:30.525Z,10.84
2022-11-05T15:31:59.190Z,10.79
2022-11-05T15:34:32.550Z,10.76
2022-11-05T15:37:00.140Z,10.78
2022-11-05T15:39:39.376Z,10.78
2022-11-05T15:42:12.350Z,10.76
2022-11-05T15:44:50.233Z,10.76
2022-11-05T15:47:21.401Z,10.71
2022-11-05T15:50:03.263Z,10.66
2022-11-05T15:52:36.570Z,10.61
2022-11-05T15:55:12.053Z,10.59
2022-11-05T15:57:46.473Z,10.60
2022-11-05T16:00:22.844Z,10.60
2022-11-05T16:02:58.071Z,10.54
2022-11-05T16:05:30.536Z,10.54
2022-11-05T16:08:01.721Z,10.53
2022-11-05T16:10:36.962Z,10.52
2022-11-05T16:13:32.039Z,10.49
2022-11-05T16:16:02.471Z,10.45
2022-11-05T16:18:35.457Z,10.42
2022-11-05T16:21:03.740Z,10.42
2022-11-05T16:23:45.992Z,10.39
2022-11-05T16:29:35.556Z,10.33
2022-11-05T16:32:05.838Z,10.30
2022-11-05T16:34:40.011Z,10.28
2022-11-05T16:37:08.251Z,10.25
2022-11-05T16:39:34.758Z,10.22
2022-11-05T16:42:01.125Z,10.24
2022-11-05T16:44:27.529Z,10.21
2022-11-05T16:46:53.970Z,10.18
2022-11-05T16:49:20.606Z,10.17
2022-11-05T16:51:46.968Z,10.15
2022-11-05T16:54:13.280Z,10.14
2022-11-05T16:56:42.299Z,10.16
2022-11-05T16:59:12.378Z,10.13
2022-11-05T17:01:42.211Z,10.11
2022-11-05T17:04:11.514Z,10.10
2022-11-05T17:06:37.827Z,10.11
2022-11-05T17:09:04.192Z,10.12
2022-11-05T17:11:30.607Z,10.08
2022-11-05T17:13:56.924Z,10.08
2022-11-05T17:16:23.505Z,10.07
2022-11-05T17:18:49.947Z,10.07
2022-11-05T17:21:16.530Z,10.06
2022-11-05T17:23:42.951Z,10.04
2022-11-05T17:26:11.651Z,10.02
2022-11-05T17:28:38.533Z,10.05
2022-11-05T17:31:08.319Z,10.02
2022-11-05T17:33:38.025Z,10.04
2022-11-05T17:36:14.227Z,10.04
2022-11-05T17:38:40.841Z,10.03
2022-11-05T17:41:15.305Z,10.01
2022-11-05T17:43:41.893Z,10.00
2022-11-05T17:46:10.607Z,9.99
2022-11-05T17:48:38.325Z,10.01
2022-11-05T17:51:09.094Z,10.01
2022-11-05T17:53:36.120Z,10.02
2022-11-05T17:56:02.679Z,10.02
2022-11-05T17:58:29.160Z,10.02
2022-11-05T18:00:55.510Z,10.02
2022-11-05T18:03:21.829Z,10.03
2022-11-05T18:05:48.183Z,10.01
2022-11-05T18:08:14.763Z,10.01
2022-11-05T18:10:41.733Z,10.00
2022-11-05T18:13:08.894Z,10.01
2022-11-05T18:15:37.904Z,9.97
2022-11-05T18:18:04.212Z,9.97
2022-11-05T18:20:30.674Z,9.94
2022-11-05T18:22:57.008Z,9.93
2022-11-05T18:25:23.389Z,9.90
2022-11-05T18:27:49.837Z,9.87
2022-11-05T18:30:16.394Z,9.86
2022-11-05T18:32:44.586Z,9.87
2022-11-05T18:35:11.922Z,9.86
2022-11-05T18:37:38.969Z,9.84
2022-11-05T18:40:06.830Z,9.82
2022-11-05T18:42:33.331Z,9.82
2022-11-05T18:44:59.712Z,9.82
2022-11-05T18:47:26.138Z,9.83
2022-11-05T18:49:52.479Z,9.82
2022-11-05T18:52:18.915Z,9.80
2022-11-05T18:54:45.413Z,9.82
2022-11-05T18:57:11.940Z,9.83
2022-11-05T18:59:42.013Z,9.82
2022-11-05T19:02:10.854Z,9.82
2022-11-05T19:04:37.560Z,9.85
2022-11-05T19:07:05.868Z,9.84
2022-11-05T19:09:36.784Z,9.85
2022-11-05T19:12:04.102Z,9.85
2022-11-05T19:14:30.756Z,9.84
2022-11-05T19:16:58.156Z,9.85
2022-11-05T19:19:24.810Z,9.84
2022-11-05T19:21:51.718Z,9.84
2022-11-05T19:24:18.219Z,9.84
2022-11-05T19:26:44.882Z,9.84
2022-11-05T19:29:11.701Z,9.80
2022-11-05T19:31:38.592Z,9.78
2022-11-05T19:34:05.426Z,9.78
2022-11-05T19:36:32.910Z,9.75
2022-11-05T19:39:02.556Z,9.73
2022-11-05T19:41:29.683Z,9.70
2022-11-05T19:43:57.997Z,9.68
2022-11-05T19:46:25.048Z,9.68
2022-11-05T19:48:52.640Z,9.65
2022-11-05T19:51:27.607Z,9.64
2022-11-05T19:53:55.231Z,9.65
2022-11-05T19:56:24.512Z,9.68
2022-11-05T19:58:52.981Z,9.68
2022-11-05T20:01:20.888Z,9.70
2022-11-05T20:03:47.552Z,9.71
2022-11-05T20:06:17.493Z,9.71
2022-11-05T20:09:07.081Z,9.71
2022-11-05T20:11:31.221Z,9.71
2022-11-05T20:13:57.834Z,9.70
2022-11-05T20:16:27.825Z,9.69
2022-11-05T20:18:54.607Z,9.67
2022-11-05T20:21:21.388Z,9.64
2022-11-05T20:23:47.803Z,9.61
2022-11-05T20:26:15.154Z,9.60
2022-11-05T20:28:42.805Z,9.61
2022-11-05T20:31:15.379Z,9.60
2022-11-05T20:33:42.395Z,9.60
2022-11-05T20:36:20.024Z,9.59
2022-11-05T20:38:51.680Z,9.60
2022-11-05T20:41:19.156Z,9.60
2022-11-05T20:43:46.786Z,9.58
2022-11-05T20:46:15.626Z,9.58
2022-11-05T20:48:44.109Z,9.58
2022-11-05T20:51:14.591Z,9.57
2022-11-05T20:53:41.459Z,9.56
2022-11-05T20:56:09.270Z,9.56
2022-11-05T20:58:37.504Z,9.54
2022-11-05T21:01:05.249Z,9.52
2022-11-05T21:03:31.795Z,9.47
2022-11-05T21:05:59.834Z,9.45
2022-11-05T21:08:27.541Z,9.42
2022-11-05T21:10:55.148Z,9.39
2022-11-05T21:13:22.285Z,9.35
2022-11-05T21:15:53.042Z,9.33
2022-11-05T21:18:21.500Z,9.32
2022-11-05T21:20:48.120Z,9.28
2022-11-05T21:23:15.423Z,9.26
2022-11-05T21:25:42.695Z,9.25
2022-11-05T21:28:11.212Z,9.23
2022-11-05T21:30:41.452Z,9.22
2022-11-05T21:33:08.698Z,9.20
2022-11-05T21:35:39.847Z,9.20
2022-11-05T21:38:06.358Z,9.19
2022-11-05T21:40:32.790Z,9.20
2022-11-05T21:42:59.124Z,9.22
2022-11-05T21:45:25.998Z,9.25
2022-11-05T21:47:52.594Z,9.24
2022-11-05T21:50:21.960Z,9.27
2022-11-05T21:53:07.167Z,9.28
2022-11-05T21:55:52.072Z,9.29
2022-11-05T21:58:36.813Z,9.30
2022-11-05T22:01:03.448Z,9.29
2022-11-05T22:03:29.851Z,9.31
2022-11-05T22:05:56.868Z,9.30
2022-11-05T22:08:23.270Z,9.31
2022-11-05T22:10:49.704Z,9.32
2022-11-05T22:13:16.614Z,9.32
2022-11-05T22:15:42.985Z,9.33
2022-11-05T22:18:09.491Z,9.32
2022-11-05T22:20:38.436Z,9.32
2022-11-05T22:23:10.078Z,9.32
2022-11-05T22:25:37.512Z,9.31
2022-11-05T22:28:04.082Z,9.31
2022-11-05T22:30:34.487Z,9.30
2022-11-05T22:33:01.458Z,9.27
2022-11-05T22:35:28.029Z,9.27
2022-11-05T22:37:54.517Z,9.27
2022-11-05T22:40:23.819Z,9.28
2022-11-05T22:42:50.540Z,9.30
2022-11-05T22:45:16.940Z,9.31
2022-11-05T22:47:43.294Z,9.32
2022-11-05T22:50:10.029Z,9.31
2022-11-05T22:52:36.422Z,9.32
2022-11-05T22:55:05.066Z,9.32
2022-11-05T22:57:31.637Z,9.31
2022-11-05T22:59:57.965Z,9.29
2022-11-05T23:02:24.552Z,9.30
2022-11-05T23:04:52.113Z,9.31
2022-11-05T23:07:37.069Z,9.33
2022-11-05T23:10:22.434Z,9.33
2022-11-05T23:12:48.910Z,9.31
2022-11-05T23:15:35.289Z,9.29
2022-11-05T23:18:20.283Z,9.31
2022-11-05T23:21:05.507Z,9.31
2022-11-05T23:23:50.368Z,9.32
2022-11-05T23:26:35.697Z,9.29
2022-11-05T23:29:02.030Z,9.27
2022-11-05T23:31:46.829Z,9.25
2022-11-05T23:34:13.168Z,9.20
2022-11-05T23:36:58.082Z,9.18
2022-11-05T23:39:24.457Z,9.16
2022-11-05T23:42:09.875Z,9.15
2022-11-05T23:45:15.018Z,9.14
2022-11-05T23:48:00.329Z,9.11
2022-11-05T23:50:27.269Z,9.10
2022-11-05T23:52:54.351Z,9.10
2022-11-05T23:55:21.883Z,9.10
2022-11-05T23:57:48.579Z,9.10
